Time,TemperatureF,DewpointF,PressureIn,WindDirection,WindDirectionDegrees,WindSpeedMPH,WindSpeedGustMPH,Humidity,HourlyPrecipIn,Conditions,Clouds,dailyrainin,SolarRadiationWatts/m^2,SoftwareType,DateUTC
2013-07-13 00:01:00,62.0,47.0,-100.00,SSW,211,0.0,6.0,59,0.00,,,0.00,15.000000,,2013-07-13 08:01:00,
2013-07-13 00:11:00,62.0,47.0,-100.00,SSW,211,0.0,6.0,59,0.00,,,0.00,15.000000,,2013-07-13 08:11:00,
2013-07-13 00:22:00,62.0,47.0,-100.00,SSW,211,0.0,6.0,59,0.00,,,0.00,15.000000,,2013-07-13 08:22:00,
2013-07-13 00:52:00,57.0,50.0,-100.00,SSE,152,0.0,4.0,76,0.00,,,0.00,1.000000,,2013-07-13 08:52:00,
2013-07-13 01:02:00,57.0,50.0,-100.00,SSE,152,0.0,4.0,76,0.00,,,0.00,1.000000,,2013-07-13 09:02:00,
2013-07-13 01:11:00,57.0,50.0,-100.00,SSE,152,0.0,4.0,76,0.00,,,0.00,1.000000,,2013-07-13 09:11:00,
2013-07-13 01:22:00,57.0,50.0,-100.00,SSE,152,0.0,4.0,76,0.00,,,0.00,1.000000,,2013-07-13 09:22:00,
2013-07-13 01:53:00,56.0,49.0,-100.00,SW,234,0.0,3.0,78,0.00,,,0.00,0.000000,,2013-07-13 09:53:00,
2013-07-13 02:01:00,56.0,49.0,-100.00,SW,234,0.0,3.0,78,0.00,,,0.00,0.000000,,2013-07-13 10:01:00,
2013-07-13 02:11:00,56.0,49.0,-100.00,SW,234,0.0,3.0,78,0.00,,,0.00,0.000000,,2013-07-13 10:11:00,
2013-07-13 02:22:00,56.0,49.0,-100.00,SW,234,0.0,3.0,78,0.00,,,0.00,0.000000,,2013-07-13 10:22:00,
2013-07-13 02:52:00,54.0,48.0,-100.00,SW,223,0.0,2.0,81,0.00,,,0.00,0.000000,,2013-07-13 10:52:00,
2013-07-13 03:02:00,54.0,48.0,-100.00,SW,223,0.0,2.0,81,0.00,,,0.00,0.000000,,2013-07-13 11:02:00,
2013-07-13 03:11:00,54.0,48.0,-100.00,SW,223,0.0,2.0,81,0.00,,,0.00,0.000000,,2013-07-13 11:11:00,
2013-07-13 03:22:00,54.0,48.0,-100.00,SW,223,0.0,2.0,81,0.00,,,0.00,0.000000,,2013-07-13 11:22:00,
2013-07-13 03:52:00,52.0,48.0,-100.00,NE,43,0.0,2.0,85,0.00,,,0.00,0.000000,,2013-07-13 11:52:00,
2013-07-13 04:02:00,52.0,48.0,-100.00,NE,43,0.0,2.0,85,0.00,,,0.00,0.000000,,2013-07-13 12:02:00,
2013-07-13 04:12:00,52.0,48.0,-100.00,NE,43,0.0,2.0,85,0.00,,,0.00,0.000000,,2013-07-13 12:12:00,
2013-07-13 04:22:00,52.0,48.0,-100.00,NE,43,0.0,2.0,85,0.00,,,0.00,0.000000,,2013-07-13 12:22:00,
2013-07-13 05:01:00,50.0,46.0,-100.00,NE,37,0.0,2.0,87,0.00,,,0.00,0.000000,,2013-07-13 13:01:00,
2013-07-13 05:11:00,50.0,46.0,-100.00,NE,37,0.0,2.0,87,0.00,,,0.00,0.000000,,2013-07-13 13:11:00,
2013-07-13 05:22:00,50.0,46.0,-100.00,NE,37,0.0,2.0,87,0.00,,,0.00,0.000000,,2013-07-13 13:22:00,
2013-07-13 06:02:00,48.0,45.0,-100.00,NE,37,2.0,3.0,89,0.00,,,0.00,4.000000,,2013-07-13 14:02:00,
2013-07-13 06:11:00,48.0,45.0,-100.00,NE,37,2.0,3.0,89,0.00,,,0.00,4.000000,,2013-07-13 14:11:00,
2013-07-13 06:22:00,48.0,45.0,-100.00,NE,37,2.0,3.0,89,0.00,,,0.00,4.000000,,2013-07-13 14:22:00,
2013-07-13 06:53:00,48.0,46.0,-100.00,NNE,21,1.0,3.0,92,0.00,,,0.00,27.000000,,2013-07-13 14:53:00,
2013-07-13 07:02:00,48.0,46.0,-100.00,NNE,21,1.0,3.0,92,0.00,,,0.00,27.000000,,2013-07-13 15:02:00,
2013-07-13 07:12:00,48.0,46.0,-100.00,NNE,21,1.0,3.0,92,0.00,,,0.00,27.000000,,2013-07-13 15:12:00,
2013-07-13 07:22:00,48.0,46.0,-100.00,NNE,21,1.0,3.0,92,0.00,,,0.00,27.000000,,2013-07-13 15:22:00,
2013-07-13 07:53:00,51.0,48.0,-100.00,South,178,0.0,4.0,88,0.00,,,0.00,65.000000,,2013-07-13 15:53:00,
2013-07-13 08:02:00,51.0,48.0,-100.00,South,178,0.0,4.0,88,0.00,,,0.00,65.000000,,2013-07-13 16:02:00,
2013-07-13 08:11:00,51.0,48.0,-100.00,South,178,0.0,4.0,88,0.00,,,0.00,65.000000,,2013-07-13 16:11:00,
2013-07-13 08:22:00,51.0,48.0,-100.00,South,178,0.0,4.0,88,0.00,,,0.00,65.000000,,2013-07-13 16:22:00,
2013-07-13 08:53:00,57.0,50.0,-100.00,SW,218,1.0,3.0,78,0.00,,,0.00,150.000000,,2013-07-13 16:53:00,
2013-07-13 09:01:00,57.0,50.0,-100.00,SW,218,1.0,3.0,78,0.00,,,0.00,150.000000,,2013-07-13 17:01:00,
2013-07-13 09:11:00,57.0,50.0,-100.00,SW,218,1.0,3.0,78,0.00,,,0.00,150.000000,,2013-07-13 17:11:00,
2013-07-13 09:22:00,57.0,50.0,-100.00,SW,218,1.0,3.0,78,0.00,,,0.00,150.000000,,2013-07-13 17:22:00,
2013-07-13 09:52:00,60.0,51.0,-100.00,SW,214,0.0,2.0,73,0.00,,,0.00,164.000000,,2013-07-13 17:52:00,
2013-07-13 10:01:00,60.0,51.0,-100.00,SW,214,0.0,2.0,73,0.00,,,0.00,164.000000,,2013-07-13 18:01:00,
2013-07-13 10:11:00,60.0,51.0,-100.00,SW,214,0.0,2.0,73,0.00,,,0.00,164.000000,,2013-07-13 18:11:00,
2013-07-13 10:21:00,60.0,51.0,-100.00,SW,214,0.0,2.0,73,0.00,,,0.00,164.000000,,2013-07-13 18:21:00,
2013-07-13 10:53:00,63.0,52.0,-100.00,SW,222,0.0,3.0,67,0.00,,,0.00,170.000000,,2013-07-13 18:53:00,
2013-07-13 11:02:00,63.0,52.0,-100.00,SW,222,0.0,3.0,67,0.00,,,0.00,170.000000,,2013-07-13 19:02:00,
2013-07-13 11:11:00,63.0,52.0,-100.00,SW,222,0.0,3.0,67,0.00,,,0.00,170.000000,,2013-07-13 19:11:00,
2013-07-13 11:22:00,63.0,52.0,-100.00,SW,222,0.0,3.0,67,0.00,,,0.00,170.000000,,2013-07-13 19:22:00,
2013-07-13 11:52:00,62.0,52.0,-100.00,SSW,211,3.0,6.0,70,0.00,,,0.00,194.000000,,2013-07-13 19:52:00,
2013-07-13 12:01:00,62.0,52.0,-100.00,SSW,211,3.0,6.0,70,0.00,,,0.00,194.000000,,2013-07-13 20:01:00,
2013-07-13 12:11:00,62.0,52.0,-100.00,SSW,211,3.0,6.0,70,0.00,,,0.00,194.000000,,2013-07-13 20:11:00,
2013-07-13 12:22:00,62.0,52.0,-100.00,SSW,211,3.0,6.0,70,0.00,,,0.00,194.000000,,2013-07-13 20:22:00,
2013-07-13 12:53:00,65.0,50.0,-100.00,WSW,240,4.0,11.0,59,0.00,,,0.00,396.000000,,2013-07-13 20:53:00,
2013-07-13 13:02:00,65.0,50.0,-100.00,WSW,240,4.0,11.0,59,0.00,,,0.00,396.000000,,2013-07-13 21:02:00,
2013-07-13 13:12:00,65.0,50.0,-100.00,WSW,240,4.0,11.0,59,0.00,,,0.00,396.000000,,2013-07-13 21:12:00,
2013-07-13 13:22:00,65.0,50.0,-100.00,WSW,240,4.0,11.0,59,0.00,,,0.00,396.000000,,2013-07-13 21:22:00,
2013-07-13 13:53:00,64.0,50.0,-100.00,WSW,254,6.0,10.0,60,0.00,,,0.00,553.000000,,2013-07-13 21:53:00,
2013-07-13 14:01:00,64.0,50.0,-100.00,WSW,254,6.0,10.0,60,0.00,,,0.00,553.000000,,2013-07-13 22:01:00,
2013-07-13 14:11:00,64.0,50.0,-100.00,WSW,254,6.0,10.0,60,0.00,,,0.00,553.000000,,2013-07-13 22:11:00,
2013-07-13 14:22:00,64.0,50.0,-100.00,WSW,254,6.0,10.0,60,0.00,,,0.00,553.000000,,2013-07-13 22:22:00,
2013-07-13 14:53:00,69.0,51.0,-100.00,WSW,250,5.0,14.0,53,0.00,,,0.00,780.000000,,2013-07-13 22:53:00,
2013-07-13 15:01:00,69.0,51.0,-100.00,WSW,250,5.0,14.0,53,0.00,,,0.00,780.000000,,2013-07-13 23:01:00,
2013-07-13 15:11:00,69.0,51.0,-100.00,WSW,250,5.0,14.0,53,0.00,,,0.00,780.000000,,2013-07-13 23:11:00,
2013-07-13 15:22:00,69.0,51.0,-100.00,WSW,250,5.0,14.0,53,0.00,,,0.00,780.000000,,2013-07-13 23:22:00,
2013-07-13 15:53:00,69.0,51.0,-100.00,SW,230,7.0,13.0,52,0.00,,,0.00,753.000000,,2013-07-13 23:53:00,
2013-07-13 16:01:00,69.0,51.0,-100.00,SW,230,7.0,13.0,52,0.00,,,0.00,753.000000,,2013-07-14 00:01:00,
2013-07-13 16:11:00,69.0,51.0,-100.00,SW,230,7.0,13.0,52,0.00,,,0.00,753.000000,,2013-07-14 00:11:00,
2013-07-13 16:21:00,69.0,51.0,-100.00,SW,230,7.0,13.0,52,0.00,,,0.00,753.000000,,2013-07-14 00:21:00,
2013-07-13 16:53:00,67.0,47.0,-100.00,WSW,243,10.0,16.0,48,0.00,,,0.00,701.000000,,2013-07-14 00:53:00,
2013-07-13 17:01:00,67.0,47.0,-100.00,WSW,243,10.0,16.0,48,0.00,,,0.00,701.000000,,2013-07-14 01:01:00,
2013-07-13 17:11:00,67.0,47.0,-100.00,WSW,243,10.0,16.0,48,0.00,,,0.00,701.000000,,2013-07-14 01:11:00,
2013-07-13 17:22:00,67.0,47.0,-100.00,WSW,243,10.0,16.0,48,0.00,,,0.00,701.000000,,2013-07-14 01:22:00,
2013-07-13 17:52:00,69.0,47.0,-100.00,SW,220,8.0,15.0,45,0.00,,,0.00,611.000000,,2013-07-14 01:52:00,
2013-07-13 18:01:00,69.0,47.0,-100.00,SW,220,8.0,15.0,45,0.00,,,0.00,611.000000,,2013-07-14 02:01:00,
2013-07-13 18:11:00,69.0,47.0,-100.00,SW,220,8.0,15.0,45,0.00,,,0.00,611.000000,,2013-07-14 02:11:00,
2013-07-13 18:22:00,69.0,47.0,-100.00,SW,220,8.0,15.0,45,0.00,,,0.00,611.000000,,2013-07-14 02:22:00,
2013-07-13 18:53:00,67.0,46.0,-100.00,WSW,248,7.0,15.0,47,0.00,,,-99.99,503.000000,,2013-07-14 02:53:00,
2013-07-13 19:01:00,67.0,46.0,-100.00,WSW,248,7.0,15.0,47,0.00,,,-99.99,503.000000,,2013-07-14 03:01:00,
2013-07-13 19:11:00,67.0,46.0,-100.00,WSW,248,7.0,15.0,47,0.00,,,-99.99,503.000000,,2013-07-14 03:11:00,
2013-07-13 19:22:00,67.0,46.0,-100.00,WSW,248,7.0,15.0,47,0.00,,,-99.99,503.000000,,2013-07-14 03:22:00,
2013-07-13 19:53:00,67.0,46.0,-100.00,SW,230,6.0,13.0,46,0.00,,,0.00,380.000000,,2013-07-14 03:53:00,
2013-07-13 20:02:00,67.0,46.0,-100.00,SW,230,6.0,13.0,46,0.00,,,0.00,380.000000,,2013-07-14 04:02:00,
2013-07-13 20:11:00,67.0,46.0,-100.00,SW,230,6.0,13.0,46,0.00,,,0.00,380.000000,,2013-07-14 04:11:00,
2013-07-13 20:22:00,67.0,46.0,-100.00,SW,230,6.0,13.0,46,0.00,,,0.00,380.000000,,2013-07-14 04:22:00,
2013-07-13 20:54:00,64.0,45.0,-100.00,SW,217,8.0,15.0,51,0.00,,,0.00,265.000000,,2013-07-14 04:54:00,
2013-07-13 21:02:00,64.0,45.0,-100.00,SW,217,8.0,15.0,51,0.00,,,0.00,265.000000,,2013-07-14 05:02:00,
2013-07-13 21:11:00,64.0,45.0,-100.00,SW,217,8.0,15.0,51,0.00,,,0.00,265.000000,,2013-07-14 05:11:00,
2013-07-13 21:22:00,64.0,45.0,-100.00,SW,217,8.0,15.0,51,0.00,,,0.00,265.000000,,2013-07-14 05:22:00,
2013-07-13 21:53:00,60.0,46.0,-100.00,SW,224,4.0,12.0,60,0.00,,,0.00,53.000000,,2013-07-14 05:53:00,
2013-07-13 22:01:00,60.0,46.0,-100.00,SW,224,4.0,12.0,60,0.00,,,0.00,53.000000,,2013-07-14 06:01:00,
2013-07-13 22:11:00,60.0,46.0,-100.00,SW,224,4.0,12.0,60,0.00,,,0.00,53.000000,,2013-07-14 06:11:00,
2013-07-13 22:22:00,60.0,46.0,-100.00,SW,224,4.0,12.0,60,0.00,,,0.00,53.000000,,2013-07-14 06:22:00,
2013-07-13 22:53:00,58.0,47.0,-100.00,SW,225,2.0,10.0,67,0.00,,,0.00,24.000000,,2013-07-14 06:53:00,
2013-07-13 23:02:00,58.0,47.0,-100.00,SW,225,2.0,10.0,67,0.00,,,0.00,24.000000,,2013-07-14 07:02:00,
2013-07-13 23:11:00,58.0,47.0,-100.00,SW,225,2.0,10.0,67,0.00,,,0.00,24.000000,,2013-07-14 07:11:00,
2013-07-13 23:22:00,58.0,47.0,-100.00,SW,225,2.0,10.0,67,0.00,,,0.00,24.000000,,2013-07-14 07:22:00,
2013-07-13 23:53:00,53.0,49.0,-100.00,SW,224,1.0,7.0,85,0.00,,,0.00,9.000000,,2013-07-14 07:53:00,